Pure — PB5046 — position and weather

sailwx.info

Track history (hours):
 
Tides and Currents Weather Stations Pressure Air Temp Water Temp Dewpoint Dewpoint Depression Visibility Wind Speed Wind Dir Waves Ship Positions

Pure

Last reported at 2017-Sep-21 11:12 UTC. Time now 2017-Sep-21 14:03 UTC.
Position N 51°36' E 003°55'.

Length 15 m.

Type: Sailing vessel. MMSI: 244750105.

Date/timePositionNaut miles runAvg speedWind from/ knotsBaromVisibWave heightAir tempDewpointWater temp
2017-Sep-21 11:12N 51°36' E 003°55'1 4.4
2017-Sep-21 10:59N 51°35' E 003°55'2 4.0
2017-Sep-21 10:29N 51°33' E 003°53'1 2.0
2017-Sep-21 10:00N 51°33' E 003°52'2 4.6
2017-Sep-21 09:30N 51°33' E 003°48'3 5.2
2017-Sep-21 09:00N 51°33' E 003°44'2 3.9
2017-Sep-21 08:30N 51°32' E 003°41'1 2.2
2017-Sep-21 07:58N 51°33' E 003°40'0 0.0
2017-Sep-20 16:41N 51°33' E 003°40'0 2.3
2017-Sep-20 16:29N 51°33' E 003°40'1 2.9
2017-Sep-20 15:57N 51°31' E 003°39'2 3.9
2017-Sep-20 15:24N 51°30' E 003°37'2 4.9
2017-Sep-20 15:00N 51°28' E 003°36'1 0.5
2017-Sep-20 13:55N 51°27' E 003°35'1 1.1
2017-Sep-20 13:25N 51°27' E 003°35'1 1.1
2017-Sep-20 12:53N 51°27' E 003°36'3 6.4
2017-Sep-20 12:29N 51°25' E 003°33'4 7.2
2017-Sep-20 11:59N 51°24' E 003°27'2 5.1
2017-Sep-20 11:30N 51°24' E 003°23'3 5.3
2017-Sep-20 11:00N 51°23' E 003°19'3 5.7
2017-Sep-20 10:30N 51°23' E 003°15'3 5.7
2017-Sep-20 10:00N 51°22' E 003°10'2 4.7
2017-Sep-20 09:31N 51°20' E 003°07'2 4.3
2017-Sep-20 09:00N 51°19' E 003°04'2 3.8
2017-Sep-20 08:30N 51°18' E 003°02'2 3.9
2017-Sep-20 08:00N 51°17' E 002°59'2 4.1
2017-Sep-20 07:29N 51°16' E 002°56'1 2.4
2017-Sep-20 07:00N 51°15' E 002°55'1 0.1
2017-Sep-19 21:23N 51°14' E 002°55'0 0.0
2017-Sep-19 20:38N 51°14' E 002°55'0 0.0
2017-Sep-19 04:12N 51°14' E 002°55'1 3.0
2017-Sep-19 03:59N 51°14' E 002°56'3 5.5
2017-Sep-19 03:29N 51°16' E 002°53'3 5.8
2017-Sep-19 03:00N 51°19' E 002°52'2 4.5
2017-Sep-19 02:27N 51°21' E 002°54'3 7.0
2017-Sep-19 01:59N 51°24' E 002°57'3 5.3
2017-Sep-19 01:30N 51°26' E 002°58'2 5.0
2017-Sep-19 01:00N 51°28' E 002°59'3 5.8
2017-Sep-19 00:29N 51°31' E 003°02'2 4.6
2017-Sep-18 23:56N 51°33' E 003°04'3 5.0
2017-Sep-18 23:25N 51°35' E 003°06'3 4.6
2017-Sep-18 22:47N 51°38' E 003°08'32 5.9
2017-Sep-18 17:22N 51°56' E 003°51'3 8.2
2017-Sep-18 17:00N 51°58' E 003°54'3 5.8
2017-Sep-18 16:30N 52°00' E 003°58'3 6.0
2017-Sep-18 16:00N 52°02' E 004°02'2 4.4
2017-Sep-18 15:30N 52°03' E 004°05'2 4.6
2017-Sep-18 15:00N 52°04' E 004°08'2 4.2
2017-Sep-18 14:30N 52°05' E 004°11'2 3.9
2017-Sep-18 14:00N 52°06' E 004°14'1 0.2
2017-Sep-18 07:16N 52°06' E 004°16'0 0.6
2017-Sep-18 07:00N 52°06' E 004°16'0 0.3
2017-Sep-18 06:29N 52°06' E 004°16'1 2.6
2017-Sep-18 06:00N 52°07' E 004°15'4 8.5
2017-Sep-18 05:30N 52°11' E 004°11'4 7.8
2017-Sep-18 05:00N 52°14' E 004°08'3 5.7
2017-Sep-18 04:30N 52°16' E 004°06'3 5.0
2017-Sep-18 04:00N 52°18' E 004°03'3 5.3
2017-Sep-18 03:28N 52°21' E 004°00'46 2.4
2017-Sep-17 08:30N 52°58' E 004°44'2 0.1
2017-Sep-16 18:48N 52°58' E 004°47'0 0.0
2017-Sep-16 18:30N 52°58' E 004°47'0 0.0
2017-Sep-16 18:00N 52°58' E 004°47'0 0.0
2017-Sep-16 17:30N 52°58' E 004°47'0 0.0
2017-Sep-16 17:00N 52°58' E 004°47'0 0.0
2017-Sep-16 14:44N 52°58' E 004°47'0 0.0
2017-Sep-16 14:29N 52°58' E 004°47'1 2.3
2017-Sep-16 14:00N 52°59' E 004°48'3 5.1
2017-Sep-16 13:30N 53°01' E 004°50'2 4.8
2017-Sep-16 13:00N 53°02' E 004°53'2 4.4
2017-Sep-16 12:30N 53°04' E 004°56'2 4.5
2017-Sep-16 12:00N 53°04' E 004°60'2 4.2
2017-Sep-16 11:30N 53°03' E 005°03'3 6.2
2017-Sep-16 11:00N 53°02' E 005°08'3 6.9
2017-Sep-16 10:30N 53°03' E 005°14'3 7.0
2017-Sep-16 10:00N 53°05' E 005°19'1 2.5
2017-Sep-16 09:29N 53°04' E 005°20'0 0.3
2017-Sep-16 09:00N 53°04' E 005°20'2 4.5
2017-Sep-16 08:30N 53°03' E 005°24'0 0.0
2017-Sep-15 19:53N 53°03' E 005°24'0 0.0
2017-Sep-15 13:45N 53°03' E 005°24'0 0.0
2017-Sep-15 13:24N 53°03' E 005°24'0 0.0
2017-Sep-15 11:01N 53°03' E 005°24'0 0.2
2017-Sep-15 10:59N 53°03' E 005°24'2 4.0
2017-Sep-15 10:30N 53°03' E 005°21'3 5.8
2017-Sep-15 10:00N 53°01' E 005°22'3 5.5
2017-Sep-15 09:30N 53°03' E 005°21'2 3.6
2017-Sep-15 09:00N 53°03' E 005°24'  
Track history (hours):
 
Tides and Currents Weather Stations Pressure Air Temp Water Temp Dewpoint Dewpoint Depression Visibility Wind Speed Wind Dir Waves Ship Positions

Pure

Last reported at 2017-Sep-21 11:12 UTC. Time now 2017-Sep-21 14:03 UTC.
Position N 51°36' E 003°55'.

Length 15 m.

Type: Sailing vessel. MMSI: 244750105.

Date/timePositionNaut miles runAvg speedWind from/ knotsBaromVisibWave heightAir tempDewpointWater temp
2017-Sep-21 11:12N 51°36' E 003°55'1 4.4
2017-Sep-21 10:59N 51°35' E 003°55'2 4.0
2017-Sep-21 10:29N 51°33' E 003°53'1 2.0
2017-Sep-21 10:00N 51°33' E 003°52'2 4.6
2017-Sep-21 09:30N 51°33' E 003°48'3 5.2
2017-Sep-21 09:00N 51°33' E 003°44'2 3.9
2017-Sep-21 08:30N 51°32' E 003°41'1 2.2
2017-Sep-21 07:58N 51°33' E 003°40'0 0.0
2017-Sep-20 16:41N 51°33' E 003°40'0 2.3
2017-Sep-20 16:29N 51°33' E 003°40'1 2.9
2017-Sep-20 15:57N 51°31' E 003°39'2 3.9
2017-Sep-20 15:24N 51°30' E 003°37'2 4.9
2017-Sep-20 15:00N 51°28' E 003°36'1 0.5
2017-Sep-20 13:55N 51°27' E 003°35'1 1.1
2017-Sep-20 13:25N 51°27' E 003°35'1 1.1
2017-Sep-20 12:53N 51°27' E 003°36'3 6.4
2017-Sep-20 12:29N 51°25' E 003°33'4 7.2
2017-Sep-20 11:59N 51°24' E 003°27'2 5.1
2017-Sep-20 11:30N 51°24' E 003°23'3 5.3
2017-Sep-20 11:00N 51°23' E 003°19'3 5.7
2017-Sep-20 10:30N 51°23' E 003°15'3 5.7
2017-Sep-20 10:00N 51°22' E 003°10'2 4.7
2017-Sep-20 09:31N 51°20' E 003°07'2 4.3
2017-Sep-20 09:00N 51°19' E 003°04'2 3.8
2017-Sep-20 08:30N 51°18' E 003°02'2 3.9
2017-Sep-20 08:00N 51°17' E 002°59'2 4.1
2017-Sep-20 07:29N 51°16' E 002°56'1 2.4
2017-Sep-20 07:00N 51°15' E 002°55'1 0.1
2017-Sep-19 21:23N 51°14' E 002°55'0 0.0
2017-Sep-19 20:38N 51°14' E 002°55'0 0.0
2017-Sep-19 04:12N 51°14' E 002°55'1 3.0
2017-Sep-19 03:59N 51°14' E 002°56'3 5.5
2017-Sep-19 03:29N 51°16' E 002°53'3 5.8
2017-Sep-19 03:00N 51°19' E 002°52'2 4.5
2017-Sep-19 02:27N 51°21' E 002°54'3 7.0
2017-Sep-19 01:59N 51°24' E 002°57'3 5.3
2017-Sep-19 01:30N 51°26' E 002°58'2 5.0
2017-Sep-19 01:00N 51°28' E 002°59'3 5.8
2017-Sep-19 00:29N 51°31' E 003°02'2 4.6
2017-Sep-18 23:56N 51°33' E 003°04'3 5.0
2017-Sep-18 23:25N 51°35' E 003°06'3 4.6
2017-Sep-18 22:47N 51°38' E 003°08'32 5.9
2017-Sep-18 17:22N 51°56' E 003°51'3 8.2
2017-Sep-18 17:00N 51°58' E 003°54'3 5.8
2017-Sep-18 16:30N 52°00' E 003°58'3 6.0
2017-Sep-18 16:00N 52°02' E 004°02'2 4.4
2017-Sep-18 15:30N 52°03' E 004°05'2 4.6
2017-Sep-18 15:00N 52°04' E 004°08'2 4.2
2017-Sep-18 14:30N 52°05' E 004°11'2 3.9
2017-Sep-18 14:00N 52°06' E 004°14'1 0.2
2017-Sep-18 07:16N 52°06' E 004°16'0 0.6
2017-Sep-18 07:00N 52°06' E 004°16'0 0.3
2017-Sep-18 06:29N 52°06' E 004°16'1 2.6
2017-Sep-18 06:00N 52°07' E 004°15'4 8.5
2017-Sep-18 05:30N 52°11' E 004°11'4 7.8
2017-Sep-18 05:00N 52°14' E 004°08'3 5.7
2017-Sep-18 04:30N 52°16' E 004°06'3 5.0
2017-Sep-18 04:00N 52°18' E 004°03'3 5.3
2017-Sep-18 03:28N 52°21' E 004°00'46 2.4
2017-Sep-17 08:30N 52°58' E 004°44'2 0.1
2017-Sep-16 18:48N 52°58' E 004°47'0 0.0
2017-Sep-16 18:30N 52°58' E 004°47'0 0.0
2017-Sep-16 18:00N 52°58' E 004°47'0 0.0
2017-Sep-16 17:30N 52°58' E 004°47'0 0.0
2017-Sep-16 17:00N 52°58' E 004°47'0 0.0
2017-Sep-16 14:44N 52°58' E 004°47'0 0.0
2017-Sep-16 14:29N 52°58' E 004°47'1 2.3
2017-Sep-16 14:00N 52°59' E 004°48'3 5.1
2017-Sep-16 13:30N 53°01' E 004°50'2 4.8
2017-Sep-16 13:00N 53°02' E 004°53'2 4.4
2017-Sep-16 12:30N 53°04' E 004°56'2 4.5
2017-Sep-16 12:00N 53°04' E 004°60'2 4.2
2017-Sep-16 11:30N 53°03' E 005°03'3 6.2
2017-Sep-16 11:00N 53°02' E 005°08'3 6.9
2017-Sep-16 10:30N 53°03' E 005°14'3 7.0
2017-Sep-16 10:00N 53°05' E 005°19'1 2.5
2017-Sep-16 09:29N 53°04' E 005°20'0 0.3
2017-Sep-16 09:00N 53°04' E 005°20'2 4.5
2017-Sep-16 08:30N 53°03' E 005°24'0 0.0
2017-Sep-15 19:53N 53°03' E 005°24'0 0.0
2017-Sep-15 13:45N 53°03' E 005°24'0 0.0
2017-Sep-15 13:24N 53°03' E 005°24'0 0.0
2017-Sep-15 11:01N 53°03' E 005°24'0 0.2
2017-Sep-15 10:59N 53°03' E 005°24'2 4.0
2017-Sep-15 10:30N 53°03' E 005°21'3 5.8
2017-Sep-15 10:00N 53°01' E 005°22'3 5.5
2017-Sep-15 09:30N 53°03' E 005°21'2 3.6
2017-Sep-15 09:00N 53°03' E 005°24'  

Dump ship's entire track history